createdAt,value
2017-09-29T00:00:43.251Z,3.50
2017-09-29T00:03:12.414Z,4.57
2017-09-29T00:05:40.798Z,3.67
2017-09-29T00:08:09.189Z,4.23
2017-09-29T00:10:38.345Z,3.93
2017-09-29T00:13:06.736Z,3.80
2017-09-29T00:15:35.137Z,3.43
2017-09-29T00:18:03.525Z,4.10
2017-09-29T00:20:32.681Z,4.37
2017-09-29T00:23:01.090Z,4.00
2017-09-29T00:25:30.076Z,4.73
2017-09-29T00:27:58.483Z,4.33
2017-09-29T00:30:27.641Z,3.83
2017-09-29T00:32:56.037Z,3.90
2017-09-29T00:35:25.201Z,3.67
2017-09-29T00:37:53.583Z,3.67
2017-09-29T00:40:22.193Z,3.87
2017-09-29T00:42:50.664Z,3.70
2017-09-29T00:45:19.055Z,3.87
2017-09-29T00:47:48.217Z,3.60
2017-09-29T00:50:16.243Z,3.73
2017-09-29T00:52:44.638Z,4.23
2017-09-29T00:55:13.021Z,4.30
2017-09-29T00:57:40.710Z,4.23
2017-09-29T01:00:09.118Z,3.23
2017-09-29T01:02:38.265Z,3.90
2017-09-29T01:05:06.304Z,3.97
2017-09-29T01:07:34.680Z,3.40
2017-09-29T01:10:03.834Z,3.60
2017-09-29T01:12:32.213Z,3.77
2017-09-29T01:15:00.594Z,3.90
2017-09-29T01:17:28.289Z,3.90
2017-09-29T01:19:56.762Z,3.50
2017-09-29T01:22:25.166Z,3.80
2017-09-29T01:24:52.858Z,3.60
2017-09-29T01:27:22.386Z,3.67
2017-09-29T01:29:50.769Z,3.50
2017-09-29T01:32:18.813Z,4.10
2017-09-29T01:34:46.862Z,3.50
2017-09-29T01:37:14.895Z,3.87
2017-09-29T01:39:43.514Z,3.40
2017-09-29T01:42:11.899Z,3.90
2017-09-29T01:44:39.947Z,4.03
2017-09-29T01:49:42.177Z,3.37
2017-09-29T01:52:09.857Z,4.50
2017-09-29T01:54:37.539Z,3.20
2017-09-29T01:57:06.002Z,3.50
2017-09-29T01:59:33.708Z,4.30
2017-09-29T02:02:01.783Z,4.17
2017-09-29T02:04:29.477Z,3.70
2017-09-29T02:06:57.161Z,3.47
2017-09-29T02:09:25.658Z,4.07
2017-09-29T02:11:54.101Z,4.30
2017-09-29T02:14:21.800Z,3.83
2017-09-29T02:16:50.407Z,4.30
2017-09-29T02:19:18.102Z,4.20
2017-09-29T02:21:45.792Z,3.93
2017-09-29T02:24:14.249Z,4.03
2017-09-29T02:26:41.966Z,4.30
2017-09-29T02:29:09.664Z,4.83
2017-09-29T02:31:37.379Z,4.20
2017-09-29T02:34:06.213Z,3.97
2017-09-29T02:36:33.921Z,3.93
2017-09-29T02:39:02.369Z,3.10
2017-09-29T02:41:30.068Z,2.70
2017-09-29T02:43:58.530Z,3.07
2017-09-29T02:46:26.993Z,3.17
2017-09-29T02:48:55.057Z,2.93
2017-09-29T02:51:23.747Z,3.43
2017-09-29T02:53:51.814Z,2.90
2017-09-29T02:56:20.009Z,3.13
2017-09-29T02:58:49.497Z,3.10
2017-09-29T03:01:17.977Z,2.80
2017-09-29T03:03:47.759Z,3.37
2017-09-29T03:06:15.826Z,3.70
2017-09-29T03:08:43.503Z,3.50
2017-09-29T03:11:11.903Z,3.00
2017-09-29T03:13:40.269Z,3.70
2017-09-29T03:16:08.669Z,3.93
2017-09-29T03:18:37.041Z,2.87
2017-09-29T03:21:05.415Z,3.80
2017-09-29T03:23:33.801Z,4.00
2017-09-29T03:26:02.181Z,3.50
2017-09-29T03:28:30.565Z,3.33
2017-09-29T03:30:58.939Z,3.47
2017-09-29T03:33:27.387Z,3.90
2017-09-29T03:35:55.789Z,3.03
2017-09-29T03:38:24.161Z,3.97
2017-09-29T03:40:52.549Z,3.87
2017-09-29T03:43:20.964Z,3.40
2017-09-29T03:45:49.358Z,3.77
2017-09-29T03:48:17.741Z,4.17
2017-09-29T03:50:50.869Z,3.53
2017-09-29T03:53:19.586Z,3.60
2017-09-29T03:55:49.769Z,4.03
2017-09-29T03:58:18.562Z,4.20
2017-09-29T04:00:46.288Z,3.90
2017-09-29T04:03:14.673Z,3.83
2017-09-29T04:05:43.050Z,3.00
2017-09-29T04:08:11.263Z,3.33
2017-09-29T04:10:40.426Z,3.37
2017-09-29T04:13:08.476Z,2.80
2017-09-29T04:15:36.169Z,3.50
2017-09-29T04:18:04.545Z,3.50
2017-09-29T04:20:32.933Z,3.30
2017-09-29T04:23:01.325Z,4.03
2017-09-29T04:25:29.374Z,4.30
2017-09-29T04:27:57.760Z,3.00
2017-09-29T04:30:26.154Z,4.13
2017-09-29T04:32:54.535Z,3.40
2017-09-29T04:35:22.913Z,4.17
2017-09-29T04:37:52.065Z,3.10
2017-09-29T04:40:20.454Z,3.10
2017-09-29T04:42:48.861Z,3.40
2017-09-29T04:45:17.245Z,3.63
2017-09-29T04:47:45.634Z,3.67
2017-09-29T04:50:14.779Z,3.23
2017-09-29T04:52:43.195Z,3.17
2017-09-29T04:55:11.658Z,2.93
2017-09-29T04:57:40.143Z,3.40
2017-09-29T05:00:09.309Z,3.07
2017-09-29T05:02:37.723Z,2.67
2017-09-29T05:05:06.124Z,2.90
2017-09-29T05:07:35.270Z,2.87
2017-09-29T05:10:03.301Z,2.80
2017-09-29T05:12:31.681Z,2.60
2017-09-29T05:15:00.071Z,2.93
2017-09-29T05:17:28.281Z,3.20
2017-09-29T05:19:56.657Z,3.27
2017-09-29T05:22:24.725Z,2.80
2017-09-29T05:24:53.090Z,2.83
2017-09-29T05:27:21.474Z,2.70
2017-09-29T05:29:49.866Z,2.70
2017-09-29T05:32:18.257Z,2.90
2017-09-29T05:34:46.669Z,2.83
2017-09-29T05:37:15.050Z,2.00
2017-09-29T05:39:43.437Z,2.20
2017-09-29T05:42:11.817Z,2.73
2017-09-29T05:44:40.201Z,2.80
2017-09-29T05:47:08.595Z,2.97
2017-09-29T05:49:36.965Z,2.70
2017-09-29T05:52:05.367Z,4.17
2017-09-29T05:54:33.752Z,3.50
2017-09-29T05:57:02.164Z,3.03
2017-09-29T05:59:31.307Z,3.37
2017-09-29T06:01:59.699Z,2.87
2017-09-29T06:04:28.090Z,3.30
2017-09-29T06:06:56.469Z,3.50
2017-09-29T06:09:24.850Z,2.90
2017-09-29T06:11:53.226Z,3.00
2017-09-29T06:14:21.645Z,3.63
2017-09-29T06:16:50.088Z,3.60
2017-09-29T06:19:18.481Z,3.17
2017-09-29T06:21:47.631Z,3.17
2017-09-29T06:24:16.028Z,3.40
2017-09-29T06:26:44.432Z,2.77
2017-09-29T06:29:13.587Z,3.70
2017-09-29T06:31:41.997Z,3.20
2017-09-29T06:34:10.388Z,3.30
2017-09-29T06:36:39.537Z,4.10
2017-09-29T06:39:07.953Z,5.20
2017-09-29T06:41:36.348Z,3.67
2017-09-29T06:44:05.510Z,3.20
2017-09-29T06:46:33.886Z,3.40
2017-09-29T06:49:02.281Z,3.20
2017-09-29T06:51:30.683Z,3.40
2017-09-29T06:53:59.117Z,3.10
2017-09-29T06:56:27.515Z,4.10
2017-09-29T06:58:55.928Z,3.90
2017-09-29T07:01:24.313Z,3.57
2017-09-29T07:03:52.685Z,3.97
2017-09-29T07:06:21.070Z,3.83
2017-09-29T07:08:49.462Z,4.37
2017-09-29T07:11:17.868Z,3.53
2017-09-29T07:13:46.238Z,4.23
2017-09-29T07:16:14.429Z,4.00
2017-09-29T07:18:42.839Z,3.67
2017-09-29T07:21:11.291Z,3.43
2017-09-29T07:23:39.681Z,4.10
2017-09-29T07:26:09.467Z,3.97
2017-09-29T07:28:37.911Z,3.90
2017-09-29T07:31:06.333Z,3.60
2017-09-29T07:33:34.721Z,3.97
2017-09-29T07:36:03.101Z,3.77
2017-09-29T07:38:31.497Z,4.30
2017-09-29T07:41:00.657Z,4.30
2017-09-29T07:43:29.070Z,3.70
2017-09-29T07:45:57.877Z,4.60
2017-09-29T07:48:26.424Z,4.17
2017-09-29T07:50:54.819Z,3.80
2017-09-29T07:53:23.961Z,4.43
2017-09-29T07:55:52.359Z,4.00
2017-09-29T07:58:20.729Z,4.30
2017-09-29T08:00:49.123Z,4.43
2017-09-29T08:03:17.513Z,4.00
2017-09-29T08:05:46.147Z,4.80
2017-09-29T08:08:14.544Z,4.40
2017-09-29T08:10:42.921Z,4.07
2017-09-29T08:13:11.364Z,4.93
2017-09-29T08:15:39.737Z,4.50
2017-09-29T08:18:08.890Z,4.90
2017-09-29T08:20:38.124Z,4.03
2017-09-29T08:23:07.289Z,5.07
2017-09-29T08:25:35.666Z,5.40
2017-09-29T08:28:04.071Z,4.90
2017-09-29T08:30:33.218Z,4.33
2017-09-29T08:33:01.606Z,4.33
2017-09-29T08:35:29.993Z,4.20
2017-09-29T08:37:58.372Z,3.40
2017-09-29T08:40:26.774Z,3.30
2017-09-29T08:42:56.012Z,3.80
2017-09-29T08:45:24.410Z,3.90
2017-09-29T08:47:52.797Z,3.37
2017-09-29T08:50:21.197Z,3.60
2017-09-29T08:52:49.573Z,4.43
2017-09-29T08:55:17.950Z,3.97
2017-09-29T08:57:46.334Z,3.73
2017-09-29T09:00:14.709Z,3.63
2017-09-29T09:02:43.098Z,6.90
2017-09-29T09:05:12.273Z,4.00
2017-09-29T09:07:40.665Z,3.33
2017-09-29T09:10:09.029Z,3.40
2017-09-29T09:12:37.434Z,3.13
2017-09-29T09:15:06.578Z,3.43
2017-09-29T09:17:34.953Z,3.87
2017-09-29T09:20:03.344Z,3.20
2017-09-29T09:22:31.724Z,3.50
2017-09-29T09:25:00.148Z,3.40
2017-09-29T09:27:28.751Z,2.63
2017-09-29T09:29:57.143Z,2.50
2017-09-29T09:32:25.526Z,2.50
2017-09-29T09:34:53.938Z,2.87
2017-09-29T09:37:22.336Z,3.20
2017-09-29T09:39:51.486Z,3.00
2017-09-29T09:42:19.951Z,3.63
2017-09-29T09:44:48.340Z,3.00
2017-09-29T09:47:16.752Z,3.17
2017-09-29T09:49:45.157Z,3.87
2017-09-29T09:52:14.367Z,3.10
2017-09-29T09:54:42.747Z,3.50
2017-09-29T09:57:11.124Z,3.43
2017-09-29T09:59:39.521Z,3.70
2017-09-29T10:02:07.901Z,2.90
2017-09-29T10:04:36.296Z,3.10
2017-09-29T10:07:04.501Z,3.73
2017-09-29T10:09:32.889Z,2.77
2017-09-29T10:12:01.285Z,2.37
2017-09-29T10:14:29.659Z,2.00
2017-09-29T10:16:58.817Z,1.70
2017-09-29T10:19:27.194Z,2.50
2017-09-29T10:21:55.574Z,2.27
2017-09-29T10:24:23.964Z,2.50
2017-09-29T10:26:52.344Z,2.23
2017-09-29T10:29:20.740Z,1.87
2017-09-29T10:31:49.886Z,2.00
2017-09-29T10:34:18.279Z,1.93
2017-09-29T10:36:46.727Z,2.17
2017-09-29T10:39:15.115Z,2.00
2017-09-29T10:41:43.505Z,2.27
2017-09-29T10:44:11.882Z,2.30
2017-09-29T10:46:40.276Z,2.30
2017-09-29T10:49:08.663Z,2.27
2017-09-29T10:51:37.076Z,2.50
2017-09-29T10:54:05.273Z,2.30
2017-09-29T10:56:33.657Z,2.77
2017-09-29T10:59:02.054Z,2.47
2017-09-29T11:01:30.426Z,2.70
2017-09-29T11:03:58.812Z,2.60
2017-09-29T11:06:27.189Z,3.30
2017-09-29T11:08:55.601Z,2.50
2017-09-29T11:11:24.754Z,2.13
2017-09-29T11:13:53.129Z,2.90
2017-09-29T11:16:21.513Z,3.90
2017-09-29T11:18:49.889Z,3.40
2017-09-29T11:21:18.280Z,3.80
2017-09-29T11:23:46.766Z,3.20
2017-09-29T11:26:15.161Z,10.10
2017-09-29T11:28:43.550Z,5.67
2017-09-29T11:31:12.699Z,4.20
2017-09-29T11:33:41.165Z,3.70
2017-09-29T11:36:09.785Z,3.33
2017-09-29T11:38:38.185Z,4.63
2017-09-29T11:41:07.342Z,5.70
2017-09-29T11:43:35.748Z,4.47
2017-09-29T11:46:04.143Z,3.60
2017-09-29T11:48:33.345Z,3.20
2017-09-29T11:51:02.510Z,3.30
2017-09-29T11:53:30.907Z,3.43
2017-09-29T11:56:00.066Z,5.63
2017-09-29T11:58:28.450Z,3.90
2017-09-29T12:00:56.857Z,2.97
2017-09-29T12:03:26.015Z,3.40
2017-09-29T12:05:54.450Z,3.40
2017-09-29T12:08:23.618Z,2.70
2017-09-29T12:10:52.056Z,4.00
2017-09-29T12:13:20.470Z,3.37
2017-09-29T12:15:48.501Z,3.30
2017-09-29T12:18:16.892Z,3.63
2017-09-29T12:20:45.272Z,2.67
2017-09-29T12:23:14.415Z,3.40
2017-09-29T12:25:43.716Z,3.10
2017-09-29T12:28:12.860Z,3.73
2017-09-29T12:30:41.244Z,3.17
2017-09-29T12:33:09.621Z,4.30
2017-09-29T12:35:38.044Z,3.53
2017-09-29T12:38:07.185Z,3.57
2017-09-29T12:40:35.582Z,3.20
2017-09-29T12:43:04.490Z,3.80
2017-09-29T12:45:32.880Z,3.70
2017-09-29T12:48:01.261Z,4.10
2017-09-29T12:50:30.411Z,4.40
2017-09-29T12:52:58.805Z,2.60
2017-09-29T12:55:27.181Z,4.10
2017-09-29T12:57:55.485Z,3.67
2017-09-29T13:00:23.915Z,4.03
2017-09-29T13:02:52.304Z,3.60
2017-09-29T13:05:20.697Z,3.53
2017-09-29T13:07:49.098Z,3.13
2017-09-29T13:10:18.272Z,4.17
2017-09-29T13:12:46.718Z,4.13
2017-09-29T13:15:15.129Z,3.70
2017-09-29T13:17:43.593Z,3.50
2017-09-29T13:20:12.007Z,3.67
2017-09-29T13:22:40.404Z,3.20
2017-09-29T13:25:09.557Z,4.10
2017-09-29T13:27:37.954Z,3.53
2017-09-29T13:30:06.321Z,4.23
2017-09-29T13:32:34.708Z,3.33
2017-09-29T13:35:03.113Z,3.50
2017-09-29T13:37:32.294Z,4.00
2017-09-29T13:40:00.677Z,3.83
2017-09-29T13:42:31.694Z,4.27
2017-09-29T13:45:00.107Z,3.27
2017-09-29T13:47:29.250Z,4.00
2017-09-29T13:49:57.636Z,4.27
2017-09-29T13:52:26.021Z,4.53
2017-09-29T13:54:54.410Z,4.17
2017-09-29T13:57:22.813Z,4.23
2017-09-29T13:59:51.965Z,4.07
2017-09-29T14:02:20.350Z,3.70
2017-09-29T14:04:48.781Z,3.73
2017-09-29T14:07:17.156Z,4.60
2017-09-29T14:09:45.563Z,3.73
2017-09-29T14:12:13.956Z,3.57
2017-09-29T14:14:42.361Z,4.27
2017-09-29T14:17:10.754Z,4.67
2017-09-29T14:19:39.973Z,4.27
2017-09-29T14:22:08.362Z,3.77
2017-09-29T14:24:36.754Z,3.30
2017-09-29T14:27:05.213Z,3.47
2017-09-29T14:29:33.637Z,3.33
2017-09-29T14:32:02.021Z,4.70
2017-09-29T14:34:30.396Z,4.67
2017-09-29T14:36:58.798Z,4.00
2017-09-29T14:39:27.958Z,4.10
2017-09-29T14:41:56.349Z,4.33
2017-09-29T14:44:24.749Z,3.80
2017-09-29T14:46:53.890Z,3.80
2017-09-29T14:49:22.290Z,4.77
2017-09-29T14:51:50.666Z,4.20
2017-09-29T14:54:19.061Z,3.93
2017-09-29T14:56:47.441Z,4.47
2017-09-29T14:59:16.627Z,4.67
2017-09-29T15:01:45.026Z,5.10
2017-09-29T15:04:13.401Z,4.13
2017-09-29T15:06:41.781Z,4.07
2017-09-29T15:09:10.161Z,4.90
2017-09-29T15:11:38.688Z,4.63
2017-09-29T15:14:06.881Z,4.10
2017-09-29T15:16:35.281Z,3.77
2017-09-29T15:19:03.663Z,4.10
2017-09-29T15:21:31.857Z,4.20
2017-09-29T15:24:01.012Z,4.47
2017-09-29T15:26:29.392Z,4.03
2017-09-29T15:28:57.640Z,3.10
2017-09-29T15:31:26.030Z,4.70
2017-09-29T15:33:54.462Z,5.50
2017-09-29T15:36:23.609Z,4.70
2017-09-29T15:38:52.002Z,4.50
2017-09-29T15:41:20.381Z,4.57
2017-09-29T15:43:48.777Z,4.50
2017-09-29T15:46:17.858Z,5.50
2017-09-29T15:48:46.241Z,3.67
2017-09-29T15:51:14.630Z,5.10
2017-09-29T15:53:43.063Z,4.43
2017-09-29T15:56:11.494Z,5.00
2017-09-29T15:58:39.874Z,3.73
2017-09-29T16:01:08.259Z,4.13
2017-09-29T16:03:37.224Z,5.50
2017-09-29T16:06:05.617Z,4.67
2017-09-29T16:08:34.010Z,4.20
2017-09-29T16:11:03.161Z,5.83
2017-09-29T16:13:31.549Z,4.73
2017-09-29T16:15:59.989Z,5.83
2017-09-29T16:18:28.386Z,4.60
2017-09-29T16:20:56.761Z,4.87
2017-09-29T16:23:25.186Z,5.70
2017-09-29T16:25:53.583Z,4.57
2017-09-29T16:28:22.718Z,6.47
2017-09-29T16:30:51.122Z,5.00
2017-09-29T16:33:19.510Z,5.90
2017-09-29T16:35:47.900Z,5.67
2017-09-29T16:38:16.280Z,5.53
2017-09-29T16:40:45.439Z,4.90
2017-09-29T16:43:13.821Z,5.63
2017-09-29T16:45:42.209Z,6.20
2017-09-29T16:48:10.595Z,4.77
2017-09-29T16:50:38.974Z,4.63
2017-09-29T16:53:07.360Z,4.90
2017-09-29T16:55:35.889Z,4.70
2017-09-29T16:58:04.274Z,5.10
2017-09-29T17:00:32.652Z,5.23
2017-09-29T17:03:01.797Z,4.77
2017-09-29T17:05:30.453Z,4.60
2017-09-29T17:07:59.752Z,4.90
2017-09-29T17:10:28.136Z,5.43
2017-09-29T17:12:56.549Z,4.50
2017-09-29T17:15:25.726Z,3.97
2017-09-29T17:17:54.917Z,4.83
2017-09-29T17:20:23.301Z,4.23
2017-09-29T17:22:51.679Z,4.63
2017-09-29T17:25:20.072Z,4.10
2017-09-29T17:27:48.458Z,4.83
2017-09-29T17:30:17.636Z,5.90
2017-09-29T17:32:46.009Z,5.70
2017-09-29T17:35:14.391Z,6.60
2017-09-29T17:37:42.845Z,6.97
2017-09-29T17:40:11.229Z,6.30
2017-09-29T17:42:39.624Z,5.70
2017-09-29T17:45:08.029Z,6.27
2017-09-29T17:47:36.640Z,6.57
2017-09-29T17:50:05.141Z,6.77
2017-09-29T17:52:33.805Z,7.90
2017-09-29T17:55:02.257Z,5.20
2017-09-29T17:57:31.398Z,5.53
2017-09-29T17:59:59.458Z,5.03
2017-09-29T18:02:27.727Z,6.17
2017-09-29T18:04:56.390Z,6.10
2017-09-29T18:07:24.814Z,4.77
2017-09-29T18:09:53.216Z,5.17
2017-09-29T18:12:21.643Z,6.07
2017-09-29T18:14:50.095Z,5.20
2017-09-29T18:17:18.640Z,6.23
2017-09-29T18:19:47.083Z,5.40
2017-09-29T18:22:15.599Z,5.20
2017-09-29T18:24:44.068Z,5.10
2017-09-29T18:27:12.482Z,5.53
2017-09-29T18:29:41.625Z,5.90
2017-09-29T18:32:10.032Z,5.10
2017-09-29T18:34:38.465Z,5.33
2017-09-29T18:37:06.909Z,5.07
2017-09-29T18:39:35.355Z,5.00
2017-09-29T18:42:04.469Z,5.47
2017-09-29T18:44:40.198Z,5.30
2017-09-29T18:47:21.333Z,4.57
2017-09-29T18:49:50.514Z,5.10
2017-09-29T18:52:18.893Z,6.00
2017-09-29T18:54:47.281Z,5.20
2017-09-29T18:57:16.266Z,4.37
2017-09-29T18:59:44.723Z,5.07
2017-09-29T19:02:12.935Z,5.30
2017-09-29T19:04:42.078Z,5.37
2017-09-29T19:07:10.657Z,4.90
2017-09-29T19:09:39.858Z,6.20
2017-09-29T19:12:08.153Z,6.00
2017-09-29T19:14:36.538Z,5.03
2017-09-29T19:17:04.938Z,5.10
2017-09-29T19:19:34.142Z,4.73
2017-09-29T19:22:02.524Z,5.73
2017-09-29T19:24:30.927Z,5.10
2017-09-29T19:26:59.305Z,5.30
2017-09-29T19:29:27.698Z,4.60
2017-09-29T19:31:56.084Z,5.80
2017-09-29T19:34:24.501Z,4.83
2017-09-29T19:36:52.926Z,5.20
2017-09-29T19:39:21.340Z,5.63
2017-09-29T19:41:50.538Z,5.10
2017-09-29T19:44:18.909Z,4.30
2017-09-29T19:46:47.550Z,5.20
2017-09-29T19:49:16.020Z,5.10
2017-09-29T19:51:44.499Z,4.43
2017-09-29T19:54:12.921Z,6.30
2017-09-29T19:56:41.311Z,4.80
2017-09-29T19:59:09.867Z,4.90
2017-09-29T20:01:38.264Z,5.70
2017-09-29T20:04:06.644Z,4.50
2017-09-29T20:06:35.058Z,5.00
2017-09-29T20:09:03.463Z,4.30
2017-09-29T20:11:31.849Z,5.63
2017-09-29T20:14:00.250Z,4.27
2017-09-29T20:16:28.642Z,5.83
2017-09-29T20:18:57.176Z,6.87
2017-09-29T20:21:25.589Z,7.70
2017-09-29T20:23:53.968Z,5.93
2017-09-29T20:26:22.364Z,6.90
2017-09-29T20:28:50.742Z,5.90
2017-09-29T20:31:19.106Z,5.67
2017-09-29T20:33:47.499Z,5.67
2017-09-29T20:36:15.894Z,6.40
2017-09-29T20:38:45.050Z,6.47
2017-09-29T20:41:13.429Z,5.77
2017-09-29T20:43:41.809Z,5.40
2017-09-29T20:46:10.185Z,7.27
2017-09-29T20:48:38.701Z,6.10
2017-09-29T20:51:07.837Z,7.17
2017-09-29T20:53:36.231Z,6.30
2017-09-29T20:56:04.639Z,6.00
2017-09-29T20:58:33.010Z,5.50
2017-09-29T21:01:01.491Z,6.83
2017-09-29T21:03:29.885Z,5.33
2017-09-29T21:05:58.264Z,5.77
2017-09-29T21:08:26.645Z,6.20
2017-09-29T21:10:55.846Z,6.53
2017-09-29T21:13:25.005Z,6.70
2017-09-29T21:15:53.405Z,5.67
2017-09-29T21:18:21.799Z,6.30
2017-09-29T21:20:50.954Z,5.67
2017-09-29T21:23:19.388Z,6.30
2017-09-29T21:25:48.529Z,5.83
2017-09-29T21:28:16.916Z,6.60
2017-09-29T21:30:45.285Z,6.77
2017-09-29T21:33:13.674Z,5.67
2017-09-29T21:35:42.061Z,6.50
2017-09-29T21:38:10.270Z,6.07
2017-09-29T21:40:38.690Z,5.73
2017-09-29T21:43:07.063Z,6.53
2017-09-29T21:45:35.494Z,6.20
2017-09-29T21:48:03.885Z,5.17
2017-09-29T21:50:32.284Z,5.93
2017-09-29T21:53:00.667Z,5.53
2017-09-29T21:55:29.091Z,5.13
2017-09-29T21:57:57.506Z,5.67
2017-09-29T22:00:25.896Z,5.20
2017-09-29T22:02:54.309Z,5.67
2017-09-29T22:05:22.694Z,5.27
2017-09-29T22:07:51.078Z,5.10
2017-09-29T22:10:21.925Z,5.70
2017-09-29T22:12:50.307Z,6.07
2017-09-29T22:15:19.458Z,5.47
2017-09-29T22:17:47.880Z,5.40
2017-09-29T22:20:16.262Z,5.10
2017-09-29T22:22:45.076Z,5.30
2017-09-29T22:25:13.481Z,5.33
2017-09-29T22:27:41.873Z,6.17
2017-09-29T22:30:10.263Z,6.80
2017-09-29T22:32:38.674Z,6.10
2017-09-29T22:35:07.819Z,6.03
2017-09-29T22:37:36.198Z,5.93
2017-09-29T22:40:04.606Z,6.67
2017-09-29T22:42:32.982Z,6.20
2017-09-29T22:45:01.369Z,6.73
2017-09-29T22:47:30.537Z,6.17
2017-09-29T22:49:58.918Z,6.40
2017-09-29T22:52:27.308Z,6.60
2017-09-29T22:54:55.710Z,7.07
2017-09-29T22:57:24.869Z,6.93
2017-09-29T22:59:53.250Z,7.10
2017-09-29T23:02:21.661Z,6.23
2017-09-29T23:04:50.810Z,7.87
2017-09-29T23:07:19.194Z,6.80
2017-09-29T23:09:47.648Z,7.67
2017-09-29T23:12:16.697Z,7.33
2017-09-29T23:14:45.116Z,7.27
2017-09-29T23:17:13.513Z,7.70
2017-09-29T23:19:41.903Z,6.53
2017-09-29T23:22:10.281Z,7.03
2017-09-29T23:24:38.692Z,5.90
2017-09-29T23:27:07.072Z,6.80
2017-09-29T23:29:35.460Z,6.20
2017-09-29T23:32:04.618Z,6.10
2017-09-29T23:34:33.014Z,5.43
2017-09-29T23:37:01.403Z,5.90
2017-09-29T23:39:29.822Z,6.00
2017-09-29T23:41:58.202Z,5.63
2017-09-29T23:44:26.402Z,5.67
2017-09-29T23:46:54.840Z,6.23
2017-09-29T23:49:23.225Z,4.67
2017-09-29T23:51:51.598Z,4.70
2017-09-29T23:54:20.008Z,5.90
2017-09-29T23:56:48.392Z,5.87
2017-09-29T23:59:16.786Z,4.93
